sensor_id;sensor_type;location;lat;lon;timestamp;pressure;altitude;pressure_sealevel;temperature;humidity
34979;BME280;21185;50.978;13.720;2023-07-02T00:02:01;97295.13;;;20.59;63.49
34979;BME280;21185;50.978;13.720;2023-07-02T00:07:03;97289.06;;;20.58;63.87
34979;BME280;21185;50.978;13.720;2023-07-02T00:12:06;97287.47;;;20.57;64.05
34979;BME280;21185;50.978;13.720;2023-07-02T00:17:11;97291.94;;;20.57;63.53
34979;BME280;21185;50.978;13.720;2023-07-02T00:22:16;97291.16;;;20.56;63.96
34979;BME280;21185;50.978;13.720;2023-07-02T00:27:18;97287.47;;;20.57;63.95
34979;BME280;21185;50.978;13.720;2023-07-02T00:32:20;97284.59;;;20.59;63.29
34979;BME280;21185;50.978;13.720;2023-07-02T00:37:22;97295.66;;;20.61;63.02
34979;BME280;21185;50.978;13.720;2023-07-02T00:42:24;97289.34;;;20.62;63.64
34979;BME280;21185;50.978;13.720;2023-07-02T00:47:32;97286.19;;;20.60;63.73
34979;BME280;21185;50.978;13.720;2023-07-02T00:52:35;97283.53;;;20.60;63.82
34979;BME280;21185;50.978;13.720;2023-07-02T00:57:37;97293.28;;;20.59;63.87
34979;BME280;21185;50.978;13.720;2023-07-02T01:02:41;97289.59;;;20.60;63.42
34979;BME280;21185;50.978;13.720;2023-07-02T01:07:45;97291.44;;;20.60;63.70
34979;BME280;21185;50.978;13.720;2023-07-02T01:12:47;97287.47;;;20.57;64.04
34979;BME280;21185;50.978;13.720;2023-07-02T01:17:49;97287.72;;;20.56;64.18
34979;BME280;21185;50.978;13.720;2023-07-02T01:22:54;97280.06;;;20.54;64.04
34979;BME280;21185;50.978;13.720;2023-07-02T01:27:56;97285.59;;;20.53;64.42
34979;BME280;21185;50.978;13.720;2023-07-02T01:33:00;97283.19;;;20.51;64.64
34979;BME280;21185;50.978;13.720;2023-07-02T01:38:02;97285.28;;;20.49;64.44
34979;BME280;21185;50.978;13.720;2023-07-02T01:43:04;97282.66;;;20.49;64.72
34979;BME280;21185;50.978;13.720;2023-07-02T01:48:06;97280.03;;;20.49;64.71
34979;BME280;21185;50.978;13.720;2023-07-02T01:53:08;97287.94;;;20.49;64.86
34979;BME280;21185;50.978;13.720;2023-07-02T01:58:10;97292.66;;;20.47;65.11
34979;BME280;21185;50.978;13.720;2023-07-02T02:03:12;97294.72;;;20.45;65.25
34979;BME280;21185;50.978;13.720;2023-07-02T02:08:14;97305.78;;;20.42;65.33
34979;BME280;21185;50.978;13.720;2023-07-02T02:13:18;97297.78;;;20.37;65.47
34979;BME280;21185;50.978;13.720;2023-07-02T02:18:20;97299.56;;;20.31;65.72
34979;BME280;21185;50.978;13.720;2023-07-02T02:23:21;97290.81;;;20.26;66.11
34979;BME280;21185;50.978;13.720;2023-07-02T02:28:23;97298.66;;;20.21;66.66
34979;BME280;21185;50.978;13.720;2023-07-02T02:33:25;97300.19;;;20.17;66.95
34979;BME280;21185;50.978;13.720;2023-07-02T02:38:27;97289.13;;;20.15;66.97
34979;BME280;21185;50.978;13.720;2023-07-02T02:43:32;97292.78;;;20.14;66.89
34979;BME280;21185;50.978;13.720;2023-07-02T02:48:34;97298.31;;;20.12;67.24
34979;BME280;21185;50.978;13.720;2023-07-02T02:53:36;97300.16;;;20.12;66.93
34979;BME280;21185;50.978;13.720;2023-07-02T02:58:38;97299.84;;;20.08;67.41
34979;BME280;21185;50.978;13.720;2023-07-02T03:03:40;97304.31;;;20.08;67.65
34979;BME280;21185;50.978;13.720;2023-07-02T03:08:48;97306.94;;;20.08;67.56
34979;BME280;21185;50.978;13.720;2023-07-02T03:13:49;97300.34;;;20.05;67.62
34979;BME280;21185;50.978;13.720;2023-07-02T03:18:51;97304.56;;;20.06;67.40
34979;BME280;21185;50.978;13.720;2023-07-02T03:23:53;97312.47;;;20.06;67.64
34979;BME280;21185;50.978;13.720;2023-07-02T03:28:55;97312.22;;;20.08;67.36
34979;BME280;21185;50.978;13.720;2023-07-02T03:33:56;97318.03;;;20.10;67.20
34979;BME280;21185;50.978;13.720;2023-07-02T03:38:58;97319.88;;;20.09;67.18
34979;BME280;21185;50.978;13.720;2023-07-02T03:44:00;97326.47;;;20.12;67.10
34979;BME280;21185;50.978;13.720;2023-07-02T03:49:02;97328.63;;;20.15;66.80
34979;BME280;21185;50.978;13.720;2023-07-02T03:54:04;97326.78;;;20.15;66.90
34979;BME280;21185;50.978;13.720;2023-07-02T03:59:06;97329.19;;;20.17;66.95
34979;BME280;21185;50.978;13.720;2023-07-02T04:04:08;97351.84;;;20.18;66.66
34979;BME280;21185;50.978;13.720;2023-07-02T04:09:10;97346.56;;;20.18;66.75
34979;BME280;21185;50.978;13.720;2023-07-02T04:14:12;97351.84;;;20.18;66.85
34979;BME280;21185;50.978;13.720;2023-07-02T04:19:13;97348.16;;;20.19;66.97
34979;BME280;21185;50.978;13.720;2023-07-02T04:24:15;97355.50;;;20.17;67.19
34979;BME280;21185;50.978;13.720;2023-07-02T04:29:18;97363.66;;;20.15;67.22
34979;BME280;21185;50.978;13.720;2023-07-02T04:34:20;97372.59;;;20.14;67.33
34979;BME280;21185;50.978;13.720;2023-07-02T04:39:23;97379.66;;;20.09;67.83
34979;BME280;21185;50.978;13.720;2023-07-02T04:44:25;97381.72;;;20.07;67.64
34979;BME280;21185;50.978;13.720;2023-07-02T04:49:33;97384.34;;;20.07;67.85
34979;BME280;21185;50.978;13.720;2023-07-02T04:54:35;97385.88;;;20.02;68.09
34979;BME280;21185;50.978;13.720;2023-07-02T04:59:36;97393.22;;;20.00;68.50
34979;BME280;21185;50.978;13.720;2023-07-02T05:04:38;97391.63;;;19.99;68.48
34979;BME280;21185;50.978;13.720;2023-07-02T05:09:40;97398.50;;;20.00;68.30
34979;BME280;21185;50.978;13.720;2023-07-02T05:14:42;97411.13;;;19.98;68.37
34979;BME280;21185;50.978;13.720;2023-07-02T05:19:44;97415.28;;;19.94;68.58
34979;BME280;21185;50.978;13.720;2023-07-02T05:24:46;97426.28;;;19.91;68.48
34979;BME280;21185;50.978;13.720;2023-07-02T05:29:48;97428.69;;;19.93;68.27
34979;BME280;21185;50.978;13.720;2023-07-02T05:34:53;97437.63;;;19.92;67.88
34979;BME280;21185;50.978;13.720;2023-07-02T05:39:55;97436.81;;;19.91;68.08
34979;BME280;21185;50.978;13.720;2023-07-02T05:44:57;97445.50;;;19.92;67.82
34979;BME280;21185;50.978;13.720;2023-07-02T05:49:59;97451.03;;;19.90;68.01
34979;BME280;21185;50.978;13.720;2023-07-02T05:55:00;97461.06;;;19.93;67.75
34979;BME280;21185;50.978;13.720;2023-07-02T06:00:04;97460.59;;;19.96;67.67
34979;BME280;21185;50.978;13.720;2023-07-02T06:05:12;97466.97;;;20.00;67.80
34979;BME280;21185;50.978;13.720;2023-07-02T06:10:14;97472.78;;;20.02;67.70
34979;BME280;21185;50.978;13.720;2023-07-02T06:15:16;97477.00;;;20.03;67.68
34979;BME280;21185;50.978;13.720;2023-07-02T06:20:19;97480.69;;;20.02;67.63
34979;BME280;21185;50.978;13.720;2023-07-02T06:25:21;97477.25;;;20.02;67.50
34979;BME280;21185;50.978;13.720;2023-07-02T06:30:23;97474.06;;;20.00;67.42
34979;BME280;21185;50.978;13.720;2023-07-02T06:35:25;97472.53;;;20.04;67.14
34979;BME280;21185;50.978;13.720;2023-07-02T06:40:26;97475.72;;;20.06;67.09
34979;BME280;21185;50.978;13.720;2023-07-02T06:45:28;97483.41;;;20.08;66.87
34979;BME280;21185;50.978;13.720;2023-07-02T06:50:30;97492.97;;;20.14;66.79
34979;BME280;21185;50.978;13.720;2023-07-02T06:55:32;97494.38;;;20.21;66.46
34979;BME280;21185;50.978;13.720;2023-07-02T07:00:34;97493.09;;;20.24;66.43
34979;BME280;21185;50.978;13.720;2023-07-02T07:05:37;97487.66;;;20.30;66.08
34979;BME280;21185;50.978;13.720;2023-07-02T07:10:38;97486.84;;;20.47;65.65
34979;BME280;21185;50.978;13.720;2023-07-02T07:15:41;97482.75;;;20.78;65.34
34979;BME280;21185;50.978;13.720;2023-07-02T07:20:43;97490.25;;;20.91;64.96
34979;BME280;21185;50.978;13.720;2023-07-02T07:25:45;97477.56;;;20.88;64.18
34979;BME280;21185;50.978;13.720;2023-07-02T07:30:47;97481.53;;;20.90;64.10
34979;BME280;21185;50.978;13.720;2023-07-02T07:35:50;97483.31;;;20.85;63.71
34979;BME280;21185;50.978;13.720;2023-07-02T07:40:51;97475.97;;;20.87;63.83
34979;BME280;21185;50.978;13.720;2023-07-02T07:45:53;97461.25;;;20.91;62.98
34979;BME280;21185;50.978;13.720;2023-07-02T07:50:56;97480.84;;;21.00;62.26
34979;BME280;21185;50.978;13.720;2023-07-02T07:55:58;97472.91;;;21.22;61.76
34979;BME280;21185;50.978;13.720;2023-07-02T08:01:00;97475.44;;;21.39;61.22
34979;BME280;21185;50.978;13.720;2023-07-02T08:06:02;97464.28;;;21.58;60.73
34979;BME280;21185;50.978;13.720;2023-07-02T08:11:04;97466.25;;;21.78;59.85
34979;BME280;21185;50.978;13.720;2023-07-02T08:16:05;97469.47;;;21.85;59.23
34979;BME280;21185;50.978;13.720;2023-07-02T08:21:07;97468.88;;;21.73;58.35
34979;BME280;21185;50.978;13.720;2023-07-02T08:26:09;97466.19;;;21.68;58.29
34979;BME280;21185;50.978;13.720;2023-07-02T08:31:16;97467.81;;;21.74;57.84
34979;BME280;21185;50.978;13.720;2023-07-02T08:36:18;97474.19;;;21.78;56.97
34979;BME280;21185;50.978;13.720;2023-07-02T08:41:20;97475.53;;;21.81;56.53
34979;BME280;21185;50.978;13.720;2023-07-02T08:46:22;97489.34;;;21.93;55.18
34979;BME280;21185;50.978;13.720;2023-07-02T08:51:24;97486.56;;;22.05;53.39
34979;BME280;21185;50.978;13.720;2023-07-02T08:56:27;97497.19;;;22.15;53.96
34979;BME280;21185;50.978;13.720;2023-07-02T09:01:28;97487.44;;;22.20;52.63
34979;BME280;21185;50.978;13.720;2023-07-02T09:06:30;97498.00;;;22.20;51.24
34979;BME280;21185;50.978;13.720;2023-07-02T09:11:33;97505.69;;;22.22;50.57
34979;BME280;21185;50.978;13.720;2023-07-02T09:16:35;97505.09;;;22.15;49.14
34979;BME280;21185;50.978;13.720;2023-07-02T09:21:46;97500.94;;;22.24;48.86
34979;BME280;21185;50.978;13.720;2023-07-02T09:26:49;97494.16;;;22.43;49.00
34979;BME280;21185;50.978;13.720;2023-07-02T09:31:52;97502.41;;;22.52;48.71
34979;BME280;21185;50.978;13.720;2023-07-02T09:37:10;97494.03;;;22.70;48.18
34979;BME280;21185;50.978;13.720;2023-07-02T09:42:12;97500.22;;;22.91;47.55
34979;BME280;21185;50.978;13.720;2023-07-02T09:47:16;97492.88;;;23.13;47.26
34979;BME280;21185;50.978;13.720;2023-07-02T09:52:19;97497.13;;;23.30;47.22
34979;BME280;21185;50.978;13.720;2023-07-02T09:57:21;97506.88;;;23.14;46.70
34979;BME280;21185;50.978;13.720;2023-07-02T10:02:23;97514.53;;;23.00;46.39
34979;BME280;21185;50.978;13.720;2023-07-02T10:07:29;97504.50;;;23.07;46.58
34979;BME280;21185;50.978;13.720;2023-07-02T10:12:31;97504.00;;;23.20;47.43
34979;BME280;21185;50.978;13.720;2023-07-02T10:17:34;97507.94;;;23.08;47.63
34979;BME280;21185;50.978;13.720;2023-07-02T10:22:46;97510.28;;;22.99;47.17
34979;BME280;21185;50.978;13.720;2023-07-02T10:27:49;97510.34;;;23.19;47.05
34979;BME280;21185;50.978;13.720;2023-07-02T10:32:51;97509.06;;;23.37;46.83
34979;BME280;21185;50.978;13.720;2023-07-02T10:37:53;97510.09;;;23.31;45.94
34979;BME280;21185;50.978;13.720;2023-07-02T10:42:55;97515.06;;;23.07;45.92
34979;BME280;21185;50.978;13.720;2023-07-02T10:47:57;97509.25;;;23.10;45.82
34979;BME280;21185;50.978;13.720;2023-07-02T10:53:02;97506.63;;;23.15;44.72
34979;BME280;21185;50.978;13.720;2023-07-02T10:58:05;97502.97;;;23.32;45.14
34979;BME280;21185;50.978;13.720;2023-07-02T11:03:15;97492.38;;;23.37;44.40
34979;BME280;21185;50.978;13.720;2023-07-02T11:08:18;97491.59;;;23.46;44.40
34979;BME280;21185;50.978;13.720;2023-07-02T11:13:21;97492.44;;;23.62;43.97
34979;BME280;21185;50.978;13.720;2023-07-02T11:18:23;97482.09;;;23.66;44.04
34979;BME280;21185;50.978;13.720;2023-07-02T11:23:25;97488.72;;;23.58;43.77
34979;BME280;21185;50.978;13.720;2023-07-02T11:28:29;97494.78;;;23.48;43.32
34979;BME280;21185;50.978;13.720;2023-07-02T11:33:35;97496.59;;;23.38;43.83
34979;BME280;21185;50.978;13.720;2023-07-02T11:38:37;97504.53;;;23.27;43.25
34979;BME280;21185;50.978;13.720;2023-07-02T11:43:38;97514.06;;;23.23;43.40
34979;BME280;21185;50.978;13.720;2023-07-02T11:48:40;97513.28;;;23.28;43.08
34979;BME280;21185;50.978;13.720;2023-07-02T11:53:42;97513.03;;;23.40;43.14
34979;BME280;21185;50.978;13.720;2023-07-02T11:58:45;97510.44;;;23.60;43.04
34979;BME280;21185;50.978;13.720;2023-07-02T12:03:47;97521.56;;;23.67;43.10
34979;BME280;21185;50.978;13.720;2023-07-02T12:08:49;97519.44;;;23.54;42.76
34979;BME280;21185;50.978;13.720;2023-07-02T12:13:51;97532.09;;;23.42;43.14
34979;BME280;21185;50.978;13.720;2023-07-02T12:18:53;97529.19;;;23.53;43.49
34979;BME280;21185;50.978;13.720;2023-07-02T12:23:55;97524.72;;;23.54;43.67
34979;BME280;21185;50.978;13.720;2023-07-02T12:28:56;97527.59;;;23.42;42.15
34979;BME280;21185;50.978;13.720;2023-07-02T12:33:58;97519.41;;;23.49;42.20
34979;BME280;21185;50.978;13.720;2023-07-02T12:39:00;97526.28;;;23.50;42.79
34979;BME280;21185;50.978;13.720;2023-07-02T12:44:02;97528.38;;;23.43;42.52
34979;BME280;21185;50.978;13.720;2023-07-02T12:49:03;97545.06;;;23.38;42.97
34979;BME280;21185;50.978;13.720;2023-07-02T12:54:05;97533.66;;;23.33;43.01
34979;BME280;21185;50.978;13.720;2023-07-02T12:59:07;97531.00;;;23.33;43.07
34979;BME280;21185;50.978;13.720;2023-07-02T13:04:09;97527.06;;;23.45;42.78
34979;BME280;21185;50.978;13.720;2023-07-02T13:09:11;97530.28;;;23.57;43.19
34979;BME280;21185;50.978;13.720;2023-07-02T13:14:13;97531.84;;;23.48;42.38
34979;BME280;21185;50.978;13.720;2023-07-02T13:19:15;97545.59;;;23.40;42.41
34979;BME280;21185;50.978;13.720;2023-07-02T13:24:17;97552.47;;;23.31;42.46
34979;BME280;21185;50.978;13.720;2023-07-02T13:29:19;97556.94;;;23.25;42.70
34979;BME280;21185;50.978;13.720;2023-07-02T13:34:21;97557.19;;;23.24;43.01
34979;BME280;21185;50.978;13.720;2023-07-02T13:39:23;97565.41;;;23.22;43.31
34979;BME280;21185;50.978;13.720;2023-07-02T13:44:25;97567.22;;;23.17;43.64
34979;BME280;21185;50.978;13.720;2023-07-02T13:49:26;97559.84;;;23.24;43.88
34979;BME280;21185;50.978;13.720;2023-07-02T13:54:28;97562.81;;;23.43;43.78
34979;BME280;21185;50.978;13.720;2023-07-02T13:59:30;97565.72;;;23.46;44.06
34979;BME280;21185;50.978;13.720;2023-07-02T14:04:32;97564.66;;;23.47;43.95
34979;BME280;21185;50.978;13.720;2023-07-02T14:09:34;97567.03;;;23.39;43.16
34979;BME280;21185;50.978;13.720;2023-07-02T14:14:38;97565.44;;;23.38;42.57
34979;BME280;21185;50.978;13.720;2023-07-02T14:19:39;97570.75;;;23.48;42.41
34979;BME280;21185;50.978;13.720;2023-07-02T14:24:41;97590.38;;;23.52;42.04
34979;BME280;21185;50.978;13.720;2023-07-02T14:29:43;97579.50;;;23.53;42.35
34979;BME280;21185;50.978;13.720;2023-07-02T14:34:45;97576.38;;;23.67;42.69
34979;BME280;21185;50.978;13.720;2023-07-02T14:39:47;97579.84;;;23.72;42.17
34979;BME280;21185;50.978;13.720;2023-07-02T14:45:07;97581.44;;;23.83;41.58
34979;BME280;21185;50.978;13.720;2023-07-02T14:50:09;97581.97;;;24.01;41.60
34979;BME280;21185;50.978;13.720;2023-07-02T14:55:11;97580.91;;;23.86;40.94
34979;BME280;21185;50.978;13.720;2023-07-02T15:00:13;97590.44;;;23.77;41.23
34979;BME280;21185;50.978;13.720;2023-07-02T15:05:15;97592.28;;;23.82;41.01
34979;BME280;21185;50.978;13.720;2023-07-02T15:10:17;97588.06;;;23.91;40.53
34979;BME280;21185;50.978;13.720;2023-07-02T15:15:19;97602.38;;;23.90;40.06
34979;BME280;21185;50.978;13.720;2023-07-02T15:20:23;97599.97;;;23.78;39.80
34979;BME280;21185;50.978;13.720;2023-07-02T15:25:25;97604.19;;;23.69;39.77
34979;BME280;21185;50.978;13.720;2023-07-02T15:30:28;97605.25;;;23.68;39.72
34979;BME280;21185;50.978;13.720;2023-07-02T15:35:30;97610.03;;;23.71;39.68
34979;BME280;21185;50.978;13.720;2023-07-02T15:40:31;97601.81;;;23.73;40.17
34979;BME280;21185;50.978;13.720;2023-07-02T15:45:34;97603.16;;;23.80;40.11
34979;BME280;21185;50.978;13.720;2023-07-02T15:50:36;97604.47;;;23.78;39.82
34979;BME280;21185;50.978;13.720;2023-07-02T15:55:38;97612.41;;;23.68;40.17
34979;BME280;21185;50.978;13.720;2023-07-02T16:00:40;97619.28;;;23.69;39.87
34979;BME280;21185;50.978;13.720;2023-07-02T16:05:42;97623.78;;;23.68;40.21
34979;BME280;21185;50.978;13.720;2023-07-02T16:10:44;97613.47;;;23.67;40.21
34979;BME280;21185;50.978;13.720;2023-07-02T16:15:46;97623.25;;;23.66;40.57
34979;BME280;21185;50.978;13.720;2023-07-02T16:20:55;97615.31;;;23.61;40.80
34979;BME280;21185;50.978;13.720;2023-07-02T16:26:00;97621.13;;;23.58;40.65
34979;BME280;21185;50.978;13.720;2023-07-02T16:31:03;97625.34;;;23.54;41.09
34979;BME280;21185;50.978;13.720;2023-07-02T16:36:09;97635.91;;;23.49;40.72
34979;BME280;21185;50.978;13.720;2023-07-02T16:41:12;97633.78;;;23.51;40.96
34979;BME280;21185;50.978;13.720;2023-07-02T16:46:14;97634.59;;;23.51;41.02
34979;BME280;21185;50.978;13.720;2023-07-02T16:51:17;97634.03;;;23.49;40.68
34979;BME280;21185;50.978;13.720;2023-07-02T16:56:19;97629.28;;;23.46;40.56
34979;BME280;21185;50.978;13.720;2023-07-02T17:01:20;97640.09;;;23.40;40.39
34979;BME280;21185;50.978;13.720;2023-07-02T17:06:23;97639.31;;;23.39;40.68
34979;BME280;21185;50.978;13.720;2023-07-02T17:11:24;97646.19;;;23.40;40.79
34979;BME280;21185;50.978;13.720;2023-07-02T17:16:26;97653.31;;;23.35;40.79
34979;BME280;21185;50.978;13.720;2023-07-02T17:21:28;97658.06;;;23.27;41.18
34979;BME280;21185;50.978;13.720;2023-07-02T17:26:30;97664.91;;;23.23;41.21
34979;BME280;21185;50.978;13.720;2023-07-02T17:31:32;97661.19;;;23.19;41.36
34979;BME280;21185;50.978;13.720;2023-07-02T17:36:34;97662.22;;;23.13;41.67
34979;BME280;21185;50.978;13.720;2023-07-02T17:41:36;97657.97;;;23.07;41.45
34979;BME280;21185;50.978;13.720;2023-07-02T17:46:39;97660.59;;;23.02;41.21
34979;BME280;21185;50.978;13.720;2023-07-02T17:51:40;97655.81;;;22.99;41.41
34979;BME280;21185;50.978;13.720;2023-07-02T17:56:49;97656.31;;;22.96;41.31
34979;BME280;21185;50.978;13.720;2023-07-02T18:01:51;97659.47;;;22.93;41.34
34979;BME280;21185;50.978;13.720;2023-07-02T18:07:15;97660.50;;;22.87;41.43
34979;BME280;21185;50.978;13.720;2023-07-02T18:12:16;97664.16;;;22.81;41.57
34979;BME280;21185;50.978;13.720;2023-07-02T18:17:19;97669.94;;;22.78;41.53
34979;BME280;21185;50.978;13.720;2023-07-02T18:22:21;97675.72;;;22.75;41.88
34979;BME280;21185;50.978;13.720;2023-07-02T18:27:23;97679.69;;;22.72;41.88
34979;BME280;21185;50.978;13.720;2023-07-02T18:32:25;97674.41;;;22.72;41.92
34979;BME280;21185;50.978;13.720;2023-07-02T18:37:31;97677.84;;;22.73;41.96
34979;BME280;21185;50.978;13.720;2023-07-02T18:42:33;97679.69;;;22.72;42.27
34979;BME280;21185;50.978;13.720;2023-07-02T18:47:35;97675.97;;;22.68;42.38
34979;BME280;21185;50.978;13.720;2023-07-02T18:52:38;97683.06;;;22.62;42.42
34979;BME280;21185;50.978;13.720;2023-07-02T18:57:40;97688.06;;;22.59;42.30
34979;BME280;21185;50.978;13.720;2023-07-02T19:02:46;97685.13;;;22.55;42.48
34979;BME280;21185;50.978;13.720;2023-07-02T19:07:49;97693.81;;;22.51;42.64
34979;BME280;21185;50.978;13.720;2023-07-02T19:12:51;97684.00;;;22.46;42.42
34979;BME280;21185;50.978;13.720;2023-07-02T19:17:52;97689.50;;;22.40;42.61
34979;BME280;21185;50.978;13.720;2023-07-02T19:22:54;97692.09;;;22.35;42.51
34979;BME280;21185;50.978;13.720;2023-07-02T19:27:57;97697.09;;;22.31;42.88
34979;BME280;21185;50.978;13.720;2023-07-02T19:32:59;97705.75;;;22.26;42.79
34979;BME280;21185;50.978;13.720;2023-07-02T19:38:01;97700.19;;;22.23;43.20
34979;BME280;21185;50.978;13.720;2023-07-02T19:43:02;97711.25;;;22.20;43.05
34979;BME280;21185;50.978;13.720;2023-07-02T19:48:04;97711.75;;;22.17;43.26
34979;BME280;21185;50.978;13.720;2023-07-02T19:53:06;97725.22;;;22.15;43.19
34979;BME280;21185;50.978;13.720;2023-07-02T19:58:08;97714.91;;;22.14;43.16
34979;BME280;21185;50.978;13.720;2023-07-02T20:03:10;97723.88;;;22.13;43.13
34979;BME280;21185;50.978;13.720;2023-07-02T20:08:13;97730.94;;;22.07;43.25
34979;BME280;21185;50.978;13.720;2023-07-02T20:13:15;97724.78;;;22.02;43.55
34979;BME280;21185;50.978;13.720;2023-07-02T20:18:17;97725.78;;;21.95;43.68
34979;BME280;21185;50.978;13.720;2023-07-02T20:23:22;97735.72;;;21.88;43.83
34979;BME280;21185;50.978;13.720;2023-07-02T20:28:26;97738.25;;;21.78;43.66
34979;BME280;21185;50.978;13.720;2023-07-02T20:33:28;97732.91;;;21.73;43.82
34979;BME280;21185;50.978;13.720;2023-07-02T20:38:30;97735.25;;;21.70;43.76
34979;BME280;21185;50.978;13.720;2023-07-02T20:43:32;97745.25;;;21.67;44.07
34979;BME280;21185;50.978;13.720;2023-07-02T20:48:44;97742.06;;;21.65;43.94
34979;BME280;21185;50.978;13.720;2023-07-02T20:53:46;97751.03;;;21.64;44.21
34979;BME280;21185;50.978;13.720;2023-07-02T20:58:49;97753.94;;;21.63;44.28
34979;BME280;21185;50.978;13.720;2023-07-02T21:03:51;97766.09;;;21.64;44.46
34979;BME280;21185;50.978;13.720;2023-07-02T21:08:53;97762.88;;;21.62;44.26
34979;BME280;21185;50.978;13.720;2023-07-02T21:13:55;97777.63;;;21.58;44.48
34979;BME280;21185;50.978;13.720;2023-07-02T21:18:58;97780.69;;;21.50;44.63
34979;BME280;21185;50.978;13.720;2023-07-02T21:23:59;97789.56;;;21.44;44.75
34979;BME280;21185;50.978;13.720;2023-07-02T21:29:01;97795.28;;;21.36;44.86
34979;BME280;21185;50.978;13.720;2023-07-02T21:34:03;97801.50;;;21.29;44.75
34979;BME280;21185;50.978;13.720;2023-07-02T21:39:05;97806.47;;;21.26;44.98
34979;BME280;21185;50.978;13.720;2023-07-02T21:44:07;97813.97;;;21.17;44.70
34979;BME280;21185;50.978;13.720;2023-07-02T21:49:08;97814.69;;;21.13;45.14
34979;BME280;21185;50.978;13.720;2023-07-02T21:54:10;97825.97;;;21.08;44.99
34979;BME280;21185;50.978;13.720;2023-07-02T21:59:12;97825.97;;;21.08;45.11
34979;BME280;21185;50.978;13.720;2023-07-02T22:04:23;97831.00;;;21.10;44.96
34979;BME280;21185;50.978;13.720;2023-07-02T22:09:25;97826.53;;;21.10;45.06
34979;BME280;21185;50.978;13.720;2023-07-02T22:14:27;97827.56;;;21.09;44.94
34979;BME280;21185;50.978;13.720;2023-07-02T22:19:29;97825.41;;;21.06;45.34
34979;BME280;21185;50.978;13.720;2023-07-02T22:24:33;97836.19;;;21.05;45.24
34979;BME280;21185;50.978;13.720;2023-07-02T22:29:35;97828.53;;;21.03;45.40
34979;BME280;21185;50.978;13.720;2023-07-02T22:34:36;97829.56;;;21.02;45.18
34979;BME280;21185;50.978;13.720;2023-07-02T22:39:38;97831.63;;;21.00;45.40
34979;BME280;21185;50.978;13.720;2023-07-02T22:44:40;97832.69;;;20.99;45.24
34979;BME280;21185;50.978;13.720;2023-07-02T22:49:42;97821.56;;;20.97;45.76
34979;BME280;21185;50.978;13.720;2023-07-02T22:54:44;97824.69;;;20.94;45.73
34979;BME280;21185;50.978;13.720;2023-07-02T22:59:46;97820.38;;;20.88;45.74
34979;BME280;21185;50.978;13.720;2023-07-02T23:04:48;97816.03;;;20.82;45.89
34979;BME280;21185;50.978;13.720;2023-07-02T23:09:50;97820.47;;;20.76;45.73
34979;BME280;21185;50.978;13.720;2023-07-02T23:14:52;97812.94;;;20.68;46.11
34979;BME280;21185;50.978;13.720;2023-07-02T23:19:54;97806.78;;;20.62;45.94
34979;BME280;21185;50.978;13.720;2023-07-02T23:24:56;97808.84;;;20.60;45.95
34979;BME280;21185;50.978;13.720;2023-07-02T23:29:59;97800.38;;;20.58;45.89
34979;BME280;21185;50.978;13.720;2023-07-02T23:35:04;97805.00;;;20.51;46.08
34979;BME280;21185;50.978;13.720;2023-07-02T23:40:08;97800.69;;;20.45;46.16
34979;BME280;21185;50.978;13.720;2023-07-02T23:45:10;97795.69;;;20.32;46.26
34979;BME280;21185;50.978;13.720;2023-07-02T23:50:14;97791.25;;;20.21;46.70
34979;BME280;21185;50.978;13.720;2023-07-02T23:55:18;97792.09;;;20.10;46.34
